sensor_id;sensor_type;location;lat;lon;timestamp;temperature;humidity
4908;DHT22;64375;51.540;7.364;2023-02-26T00:01:12;4.20;90.30
4908;DHT22;64375;51.540;7.364;2023-02-26T00:03:41;4.00;86.30
4908;DHT22;64375;51.540;7.364;2023-02-26T00:06:09;4.10;87.20
4908;DHT22;64375;51.540;7.364;2023-02-26T00:08:47;3.90;87.10
4908;DHT22;64375;51.540;7.364;2023-02-26T00:11:28;4.00;88.70
4908;DHT22;64375;51.540;7.364;2023-02-26T00:13:56;4.00;87.50
4908;DHT22;64375;51.540;7.364;2023-02-26T00:16:28;3.80;87.30
4908;DHT22;64375;51.540;7.364;2023-02-26T00:18:58;3.70;87.30
4908;DHT22;64375;51.540;7.364;2023-02-26T00:21:28;3.50;87.90
4908;DHT22;64375;51.540;7.364;2023-02-26T00:23:58;3.40;89.20
4908;DHT22;64375;51.540;7.364;2023-02-26T00:26:26;3.60;90.20
4908;DHT22;64375;51.540;7.364;2023-02-26T00:28:56;3.50;89.10
4908;DHT22;64375;51.540;7.364;2023-02-26T00:31:25;4.00;91.30
4908;DHT22;64375;51.540;7.364;2023-02-26T00:33:55;3.90;89.00
4908;DHT22;64375;51.540;7.364;2023-02-26T00:36:38;3.80;88.60
4908;DHT22;64375;51.540;7.364;2023-02-26T00:39:38;3.70;89.40
4908;DHT22;64375;51.540;7.364;2023-02-26T00:42:13;4.00;90.20
4908;DHT22;64375;51.540;7.364;2023-02-26T00:44:42;4.20;90.70
4908;DHT22;64375;51.540;7.364;2023-02-26T00:47:17;4.00;87.70
4908;DHT22;64375;51.540;7.364;2023-02-26T00:50:04;3.80;88.10
4908;DHT22;64375;51.540;7.364;2023-02-26T00:52:59;3.80;88.50
4908;DHT22;64375;51.540;7.364;2023-02-26T00:55:30;3.60;88.80
4908;DHT22;64375;51.540;7.364;2023-02-26T00:58:01;3.70;90.10
4908;DHT22;64375;51.540;7.364;2023-02-26T01:00:29;3.60;89.40
4908;DHT22;64375;51.540;7.364;2023-02-26T01:03:03;3.60;90.40
4908;DHT22;64375;51.540;7.364;2023-02-26T01:05:31;3.70;90.10
4908;DHT22;64375;51.540;7.364;2023-02-26T01:08:04;3.50;89.10
4908;DHT22;64375;51.540;7.364;2023-02-26T01:10:37;3.50;90.20
4908;DHT22;64375;51.540;7.364;2023-02-26T01:13:09;3.40;89.70
4908;DHT22;64375;51.540;7.364;2023-02-26T01:15:39;3.40;90.00
4908;DHT22;64375;51.540;7.364;2023-02-26T01:18:23;3.30;90.10
4908;DHT22;64375;51.540;7.364;2023-02-26T01:20:56;3.20;90.40
4908;DHT22;64375;51.540;7.364;2023-02-26T01:23:26;3.00;90.30
4908;DHT22;64375;51.540;7.364;2023-02-26T01:26:07;3.00;90.80
4908;DHT22;64375;51.540;7.364;2023-02-26T01:28:44;3.10;91.00
4908;DHT22;64375;51.540;7.364;2023-02-26T01:31:35;2.90;90.30
4908;DHT22;64375;51.540;7.364;2023-02-26T01:34:17;2.80;90.60
4908;DHT22;64375;51.540;7.364;2023-02-26T01:36:53;3.00;90.50
4908;DHT22;64375;51.540;7.364;2023-02-26T01:39:38;2.80;90.20
4908;DHT22;64375;51.540;7.364;2023-02-26T01:42:12;2.90;90.70
4908;DHT22;64375;51.540;7.364;2023-02-26T01:44:53;3.00;90.10
4908;DHT22;64375;51.540;7.364;2023-02-26T01:47:28;3.20;90.80
4908;DHT22;64375;51.540;7.364;2023-02-26T01:49:58;3.30;90.00
4908;DHT22;64375;51.540;7.364;2023-02-26T01:55:36;3.30;88.90
4908;DHT22;64375;51.540;7.364;2023-02-26T01:58:05;3.10;87.70
4908;DHT22;64375;51.540;7.364;2023-02-26T02:00:33;2.90;88.00
4908;DHT22;64375;51.540;7.364;2023-02-26T02:03:04;2.80;89.70
4908;DHT22;64375;51.540;7.364;2023-02-26T02:05:38;2.60;89.10
4908;DHT22;64375;51.540;7.364;2023-02-26T02:08:08;2.50;88.80
4908;DHT22;64375;51.540;7.364;2023-02-26T02:10:41;2.50;88.80
4908;DHT22;64375;51.540;7.364;2023-02-26T02:13:22;2.50;90.20
4908;DHT22;64375;51.540;7.364;2023-02-26T02:16:06;2.50;89.50
4908;DHT22;64375;51.540;7.364;2023-02-26T02:18:51;2.60;88.80
4908;DHT22;64375;51.540;7.364;2023-02-26T02:22:02;2.50;88.90
4908;DHT22;64375;51.540;7.364;2023-02-26T02:24:40;2.60;90.40
4908;DHT22;64375;51.540;7.364;2023-02-26T02:27:28;2.90;90.20
4908;DHT22;64375;51.540;7.364;2023-02-26T02:30:26;2.90;88.40
4908;DHT22;64375;51.540;7.364;2023-02-26T02:32:58;2.90;87.90
4908;DHT22;64375;51.540;7.364;2023-02-26T02:35:30;3.00;88.50
4908;DHT22;64375;51.540;7.364;2023-02-26T02:38:04;3.20;89.00
4908;DHT22;64375;51.540;7.364;2023-02-26T02:40:44;3.20;87.80
4908;DHT22;64375;51.540;7.364;2023-02-26T02:43:14;3.20;87.10
4908;DHT22;64375;51.540;7.364;2023-02-26T02:45:46;3.40;90.60
4908;DHT22;64375;51.540;7.364;2023-02-26T02:48:30;3.60;87.50
4908;DHT22;64375;51.540;7.364;2023-02-26T02:51:00;3.50;87.00
4908;DHT22;64375;51.540;7.364;2023-02-26T02:53:33;3.40;86.70
4908;DHT22;64375;51.540;7.364;2023-02-26T02:56:07;3.60;89.30
4908;DHT22;64375;51.540;7.364;2023-02-26T02:58:45;3.80;88.00
4908;DHT22;64375;51.540;7.364;2023-02-26T03:01:18;3.60;85.90
4908;DHT22;64375;51.540;7.364;2023-02-26T03:03:55;3.60;88.50
4908;DHT22;64375;51.540;7.364;2023-02-26T03:06:24;4.00;90.70
4908;DHT22;64375;51.540;7.364;2023-02-26T03:08:52;4.00;86.40
4908;DHT22;64375;51.540;7.364;2023-02-26T03:11:29;3.90;85.40
4908;DHT22;64375;51.540;7.364;2023-02-26T03:14:00;3.70;85.90
4908;DHT22;64375;51.540;7.364;2023-02-26T03:16:59;3.90;89.40
4908;DHT22;64375;51.540;7.364;2023-02-26T03:19:48;3.90;86.90
4908;DHT22;64375;51.540;7.364;2023-02-26T03:22:26;3.60;86.90
4908;DHT22;64375;51.540;7.364;2023-02-26T03:25:05;3.70;88.50
4908;DHT22;64375;51.540;7.364;2023-02-26T03:27:42;3.90;88.20
4908;DHT22;64375;51.540;7.364;2023-02-26T03:30:15;3.70;86.00
4908;DHT22;64375;51.540;7.364;2023-02-26T03:32:55;3.40;86.90
4908;DHT22;64375;51.540;7.364;2023-02-26T03:35:46;3.60;89.00
4908;DHT22;64375;51.540;7.364;2023-02-26T03:38:20;3.80;89.10
4908;DHT22;64375;51.540;7.364;2023-02-26T03:40:54;3.60;87.20
4908;DHT22;64375;51.540;7.364;2023-02-26T03:43:31;3.60;87.50
4908;DHT22;64375;51.540;7.364;2023-02-26T03:46:03;3.70;89.40
4908;DHT22;64375;51.540;7.364;2023-02-26T03:48:34;4.00;90.00
4908;DHT22;64375;51.540;7.364;2023-02-26T03:51:07;4.00;87.70
4908;DHT22;64375;51.540;7.364;2023-02-26T03:53:47;3.90;88.10
4908;DHT22;64375;51.540;7.364;2023-02-26T03:56:24;4.10;90.30
4908;DHT22;64375;51.540;7.364;2023-02-26T03:58:55;3.80;86.50
4908;DHT22;64375;51.540;7.364;2023-02-26T04:01:30;3.60;87.20
4908;DHT22;64375;51.540;7.364;2023-02-26T04:04:03;3.50;89.90
4908;DHT22;64375;51.540;7.364;2023-02-26T04:06:38;3.70;89.60
4908;DHT22;64375;51.540;7.364;2023-02-26T04:09:06;3.50;87.20
4908;DHT22;64375;51.540;7.364;2023-02-26T04:11:52;3.30;87.90
4908;DHT22;64375;51.540;7.364;2023-02-26T04:14:21;3.30;89.40
4908;DHT22;64375;51.540;7.364;2023-02-26T04:16:49;3.50;90.70
4908;DHT22;64375;51.540;7.364;2023-02-26T04:19:22;3.50;88.00
4908;DHT22;64375;51.540;7.364;2023-02-26T04:21:57;3.20;87.80
4908;DHT22;64375;51.540;7.364;2023-02-26T04:24:27;3.20;89.00
4908;DHT22;64375;51.540;7.364;2023-02-26T04:26:55;3.50;90.50
4908;DHT22;64375;51.540;7.364;2023-02-26T04:29:23;3.30;87.80
4908;DHT22;64375;51.540;7.364;2023-02-26T04:31:54;3.10;88.50
4908;DHT22;64375;51.540;7.364;2023-02-26T04:34:22;3.20;90.10
4908;DHT22;64375;51.540;7.364;2023-02-26T04:36:50;3.30;89.10
4908;DHT22;64375;51.540;7.364;2023-02-26T04:39:29;3.10;89.20
4908;DHT22;64375;51.540;7.364;2023-02-26T04:41:57;3.00;89.60
4908;DHT22;64375;51.540;7.364;2023-02-26T04:44:25;3.00;88.90
4908;DHT22;64375;51.540;7.364;2023-02-26T04:46:52;3.00;89.90
4908;DHT22;64375;51.540;7.364;2023-02-26T04:49:23;3.00;89.70
4908;DHT22;64375;51.540;7.364;2023-02-26T04:51:51;2.90;88.60
4908;DHT22;64375;51.540;7.364;2023-02-26T04:54:19;2.80;89.50
4908;DHT22;64375;51.540;7.364;2023-02-26T04:56:54;2.60;89.70
4908;DHT22;64375;51.540;7.364;2023-02-26T04:59:30;2.70;90.00
4908;DHT22;64375;51.540;7.364;2023-02-26T05:01:58;2.60;90.40
4908;DHT22;64375;51.540;7.364;2023-02-26T05:04:26;2.80;90.70
4908;DHT22;64375;51.540;7.364;2023-02-26T05:06:54;2.70;89.20
4908;DHT22;64375;51.540;7.364;2023-02-26T05:09:22;2.50;89.40
4908;DHT22;64375;51.540;7.364;2023-02-26T05:11:50;2.60;91.10
4908;DHT22;64375;51.540;7.364;2023-02-26T05:14:24;2.90;91.50
4908;DHT22;64375;51.540;7.364;2023-02-26T05:17:01;3.00;90.50
4908;DHT22;64375;51.540;7.364;2023-02-26T05:19:31;2.90;89.20
4908;DHT22;64375;51.540;7.364;2023-02-26T05:22:02;3.00;91.90
4908;DHT22;64375;51.540;7.364;2023-02-26T05:24:38;3.00;90.20
4908;DHT22;64375;51.540;7.364;2023-02-26T05:27:11;3.30;91.00
4908;DHT22;64375;51.540;7.364;2023-02-26T05:29:41;3.40;89.80
4908;DHT22;64375;51.540;7.364;2023-02-26T05:32:17;3.50;90.20
4908;DHT22;64375;51.540;7.364;2023-02-26T05:34:56;3.30;89.20
4908;DHT22;64375;51.540;7.364;2023-02-26T05:37:23;3.10;90.00
4908;DHT22;64375;51.540;7.364;2023-02-26T05:39:51;3.10;90.20
4908;DHT22;64375;51.540;7.364;2023-02-26T05:42:28;3.00;89.60
4908;DHT22;64375;51.540;7.364;2023-02-26T05:44:58;2.90;89.00
4908;DHT22;64375;51.540;7.364;2023-02-26T05:47:26;3.10;90.90
4908;DHT22;64375;51.540;7.364;2023-02-26T05:49:59;3.20;90.00
4908;DHT22;64375;51.540;7.364;2023-02-26T05:52:30;3.00;88.40
4908;DHT22;64375;51.540;7.364;2023-02-26T05:55:03;2.90;88.20
4908;DHT22;64375;51.540;7.364;2023-02-26T05:57:31;3.00;90.80
4908;DHT22;64375;51.540;7.364;2023-02-26T06:00:00;2.80;87.70
4908;DHT22;64375;51.540;7.364;2023-02-26T06:02:35;2.60;88.20
4908;DHT22;64375;51.540;7.364;2023-02-26T06:05:08;2.40;89.80
4908;DHT22;64375;51.540;7.364;2023-02-26T06:07:40;2.70;90.60
4908;DHT22;64375;51.540;7.364;2023-02-26T06:10:09;3.00;89.90
4908;DHT22;64375;51.540;7.364;2023-02-26T06:12:38;3.00;88.50
4908;DHT22;64375;51.540;7.364;2023-02-26T06:15:15;3.10;89.40
4908;DHT22;64375;51.540;7.364;2023-02-26T06:17:43;3.10;89.00
4908;DHT22;64375;51.540;7.364;2023-02-26T06:20:14;3.20;88.00
4908;DHT22;64375;51.540;7.364;2023-02-26T06:22:42;3.20;89.30
4908;DHT22;64375;51.540;7.364;2023-02-26T06:25:12;3.30;89.00
4908;DHT22;64375;51.540;7.364;2023-02-26T06:27:51;3.30;88.10
4908;DHT22;64375;51.540;7.364;2023-02-26T06:30:27;2.90;86.30
4908;DHT22;64375;51.540;7.364;2023-02-26T06:32:58;2.90;89.80
4908;DHT22;64375;51.540;7.364;2023-02-26T06:35:29;2.40;87.80
4908;DHT22;64375;51.540;7.364;2023-02-26T06:37:57;2.50;90.00
4908;DHT22;64375;51.540;7.364;2023-02-26T06:40:25;2.70;91.30
4908;DHT22;64375;51.540;7.364;2023-02-26T06:42:56;2.70;90.80
4908;DHT22;64375;51.540;7.364;2023-02-26T06:45:28;3.20;93.00
4908;DHT22;64375;51.540;7.364;2023-02-26T06:47:56;3.00;90.00
4908;DHT22;64375;51.540;7.364;2023-02-26T06:50:24;3.70;93.50
4908;DHT22;64375;51.540;7.364;2023-02-26T06:52:52;3.60;89.60
4908;DHT22;64375;51.540;7.364;2023-02-26T06:55:20;3.70;90.70
4908;DHT22;64375;51.540;7.364;2023-02-26T06:57:58;3.40;87.30
4908;DHT22;64375;51.540;7.364;2023-02-26T07:00:27;3.30;87.50
4908;DHT22;64375;51.540;7.364;2023-02-26T07:02:55;3.10;87.30
4908;DHT22;64375;51.540;7.364;2023-02-26T07:05:23;3.10;89.50
4908;DHT22;64375;51.540;7.364;2023-02-26T07:07:51;3.10;88.10
4908;DHT22;64375;51.540;7.364;2023-02-26T07:10:19;2.90;88.10
4908;DHT22;64375;51.540;7.364;2023-02-26T07:12:48;3.00;88.80
4908;DHT22;64375;51.540;7.364;2023-02-26T07:15:21;2.60;88.50
4908;DHT22;64375;51.540;7.364;2023-02-26T07:17:50;2.00;89.00
4908;DHT22;64375;51.540;7.364;2023-02-26T07:20:24;1.90;91.00
4908;DHT22;64375;51.540;7.364;2023-02-26T07:22:52;1.80;90.90
4908;DHT22;64375;51.540;7.364;2023-02-26T07:25:20;1.70;90.70
4908;DHT22;64375;51.540;7.364;2023-02-26T07:27:48;1.80;91.70
4908;DHT22;64375;51.540;7.364;2023-02-26T07:30:16;1.70;90.80
4908;DHT22;64375;51.540;7.364;2023-02-26T07:32:44;1.70;91.00
4908;DHT22;64375;51.540;7.364;2023-02-26T07:35:14;1.60;91.00
4908;DHT22;64375;51.540;7.364;2023-02-26T07:37:42;1.40;91.30
4908;DHT22;64375;51.540;7.364;2023-02-26T07:40:10;1.50;91.60
4908;DHT22;64375;51.540;7.364;2023-02-26T07:42:38;1.40;91.80
4908;DHT22;64375;51.540;7.364;2023-02-26T07:45:10;1.50;92.50
4908;DHT22;64375;51.540;7.364;2023-02-26T07:47:42;1.60;92.40
4908;DHT22;64375;51.540;7.364;2023-02-26T07:50:11;1.70;91.90
4908;DHT22;64375;51.540;7.364;2023-02-26T07:52:43;1.90;91.70
4908;DHT22;64375;51.540;7.364;2023-02-26T07:55:12;2.00;91.80
4908;DHT22;64375;51.540;7.364;2023-02-26T07:57:42;1.90;92.10
4908;DHT22;64375;51.540;7.364;2023-02-26T08:00:14;1.90;92.30
4908;DHT22;64375;51.540;7.364;2023-02-26T08:02:42;2.00;91.70
4908;DHT22;64375;51.540;7.364;2023-02-26T08:05:10;2.00;91.60
4908;DHT22;64375;51.540;7.364;2023-02-26T08:07:49;1.90;91.20
4908;DHT22;64375;51.540;7.364;2023-02-26T08:10:20;1.80;91.60
4908;DHT22;64375;51.540;7.364;2023-02-26T08:12:48;2.00;91.90
4908;DHT22;64375;51.540;7.364;2023-02-26T08:15:16;1.90;91.40
4908;DHT22;64375;51.540;7.364;2023-02-26T08:17:46;1.70;91.70
4908;DHT22;64375;51.540;7.364;2023-02-26T08:20:14;1.50;91.90
4908;DHT22;64375;51.540;7.364;2023-02-26T08:22:46;1.50;92.40
4908;DHT22;64375;51.540;7.364;2023-02-26T08:25:14;1.40;92.00
4908;DHT22;64375;51.540;7.364;2023-02-26T08:27:42;1.30;92.30
4908;DHT22;64375;51.540;7.364;2023-02-26T08:30:16;1.50;92.60
4908;DHT22;64375;51.540;7.364;2023-02-26T08:32:44;1.70;92.40
4908;DHT22;64375;51.540;7.364;2023-02-26T08:35:13;1.70;92.00
4908;DHT22;64375;51.540;7.364;2023-02-26T08:37:40;1.70;92.00
4908;DHT22;64375;51.540;7.364;2023-02-26T08:40:13;1.80;91.80
4908;DHT22;64375;51.540;7.364;2023-02-26T08:42:41;1.40;92.00
4908;DHT22;64375;51.540;7.364;2023-02-26T08:45:09;1.20;92.30
4908;DHT22;64375;51.540;7.364;2023-02-26T08:47:40;1.50;92.60
4908;DHT22;64375;51.540;7.364;2023-02-26T08:50:22;1.70;92.30
4908;DHT22;64375;51.540;7.364;2023-02-26T08:52:50;1.80;92.00
4908;DHT22;64375;51.540;7.364;2023-02-26T08:55:20;1.90;91.90
4908;DHT22;64375;51.540;7.364;2023-02-26T08:57:50;1.90;91.50
4908;DHT22;64375;51.540;7.364;2023-02-26T09:00:18;1.90;91.80
4908;DHT22;64375;51.540;7.364;2023-02-26T09:02:46;1.90;91.30
4908;DHT22;64375;51.540;7.364;2023-02-26T09:05:14;2.00;91.60
4908;DHT22;64375;51.540;7.364;2023-02-26T09:07:43;2.00;91.60
4908;DHT22;64375;51.540;7.364;2023-02-26T09:10:12;2.00;91.30
4908;DHT22;64375;51.540;7.364;2023-02-26T09:12:42;2.20;91.80
4908;DHT22;64375;51.540;7.364;2023-02-26T09:15:11;2.30;91.60
4908;DHT22;64375;51.540;7.364;2023-02-26T09:17:40;2.30;91.30
4908;DHT22;64375;51.540;7.364;2023-02-26T09:20:09;2.30;91.00
4908;DHT22;64375;51.540;7.364;2023-02-26T09:22:40;2.40;91.30
4908;DHT22;64375;51.540;7.364;2023-02-26T09:25:08;2.40;91.20
4908;DHT22;64375;51.540;7.364;2023-02-26T09:27:36;2.40;90.80
4908;DHT22;64375;51.540;7.364;2023-02-26T09:30:07;2.40;90.50
4908;DHT22;64375;51.540;7.364;2023-02-26T09:32:35;2.40;90.70
4908;DHT22;64375;51.540;7.364;2023-02-26T09:35:04;2.30;90.50
4908;DHT22;64375;51.540;7.364;2023-02-26T09:37:32;2.50;91.20
4908;DHT22;64375;51.540;7.364;2023-02-26T09:40:00;2.50;90.90
4908;DHT22;64375;51.540;7.364;2023-02-26T09:42:41;2.50;90.50
4908;DHT22;64375;51.540;7.364;2023-02-26T09:45:24;2.50;90.50
4908;DHT22;64375;51.540;7.364;2023-02-26T09:47:53;2.40;90.20
4908;DHT22;64375;51.540;7.364;2023-02-26T09:50:24;2.50;90.20
4908;DHT22;64375;51.540;7.364;2023-02-26T09:52:58;2.60;90.20
4908;DHT22;64375;51.540;7.364;2023-02-26T09:55:29;2.70;89.40
4908;DHT22;64375;51.540;7.364;2023-02-26T09:57:59;2.70;89.40
4908;DHT22;64375;51.540;7.364;2023-02-26T10:00:35;2.70;89.50
4908;DHT22;64375;51.540;7.364;2023-02-26T10:03:19;2.70;88.30
4908;DHT22;64375;51.540;7.364;2023-02-26T10:06:04;2.80;89.30
4908;DHT22;64375;51.540;7.364;2023-02-26T10:08:46;2.90;87.90
4908;DHT22;64375;51.540;7.364;2023-02-26T10:11:28;3.00;89.80
4908;DHT22;64375;51.540;7.364;2023-02-26T10:14:05;3.00;89.90
4908;DHT22;64375;51.540;7.364;2023-02-26T10:16:46;3.30;90.20
4908;DHT22;64375;51.540;7.364;2023-02-26T10:19:18;3.30;87.50
4908;DHT22;64375;51.540;7.364;2023-02-26T10:21:50;3.20;86.70
4908;DHT22;64375;51.540;7.364;2023-02-26T10:24:21;3.20;87.10
4908;DHT22;64375;51.540;7.364;2023-02-26T10:26:56;3.10;86.00
4908;DHT22;64375;51.540;7.364;2023-02-26T10:29:32;3.20;86.90
4908;DHT22;64375;51.540;7.364;2023-02-26T10:32:11;3.20;86.60
4908;DHT22;64375;51.540;7.364;2023-02-26T10:34:52;3.00;85.20
4908;DHT22;64375;51.540;7.364;2023-02-26T10:37:32;2.90;85.30
4908;DHT22;64375;51.540;7.364;2023-02-26T10:40:10;3.00;85.40
4908;DHT22;64375;51.540;7.364;2023-02-26T10:42:42;2.90;86.10
4908;DHT22;64375;51.540;7.364;2023-02-26T10:45:22;3.10;86.90
4908;DHT22;64375;51.540;7.364;2023-02-26T10:48:08;3.20;84.90
4908;DHT22;64375;51.540;7.364;2023-02-26T10:50:50;3.20;84.20
4908;DHT22;64375;51.540;7.364;2023-02-26T10:53:22;3.30;86.40
4908;DHT22;64375;51.540;7.364;2023-02-26T10:55:54;3.40;83.00
4908;DHT22;64375;51.540;7.364;2023-02-26T10:58:24;3.60;85.40
4908;DHT22;64375;51.540;7.364;2023-02-26T11:00:54;3.70;83.60
4908;DHT22;64375;51.540;7.364;2023-02-26T11:03:29;3.80;82.30
4908;DHT22;64375;51.540;7.364;2023-02-26T11:06:07;3.80;82.30
4908;DHT22;64375;51.540;7.364;2023-02-26T11:08:41;4.10;81.80
4908;DHT22;64375;51.540;7.364;2023-02-26T11:11:36;3.80;82.50
4908;DHT22;64375;51.540;7.364;2023-02-26T11:14:04;3.80;81.60
4908;DHT22;64375;51.540;7.364;2023-02-26T11:16:48;3.80;82.30
4908;DHT22;64375;51.540;7.364;2023-02-26T11:19:26;3.80;80.00
4908;DHT22;64375;51.540;7.364;2023-02-26T11:21:55;3.80;81.30
4908;DHT22;64375;51.540;7.364;2023-02-26T11:24:28;3.70;79.50
4908;DHT22;64375;51.540;7.364;2023-02-26T11:26:58;3.70;80.60
4908;DHT22;64375;51.540;7.364;2023-02-26T11:29:35;3.80;80.60
4908;DHT22;64375;51.540;7.364;2023-02-26T11:32:05;3.90;80.80
4908;DHT22;64375;51.540;7.364;2023-02-26T11:34:37;3.90;80.20
4908;DHT22;64375;51.540;7.364;2023-02-26T11:37:06;3.90;79.90
4908;DHT22;64375;51.540;7.364;2023-02-26T11:39:35;3.90;78.90
4908;DHT22;64375;51.540;7.364;2023-02-26T11:42:05;4.10;79.80
4908;DHT22;64375;51.540;7.364;2023-02-26T11:44:44;4.10;79.00
4908;DHT22;64375;51.540;7.364;2023-02-26T11:47:14;4.00;79.80
4908;DHT22;64375;51.540;7.364;2023-02-26T11:49:50;4.10;78.70
4908;DHT22;64375;51.540;7.364;2023-02-26T11:52:27;4.20;78.30
4908;DHT22;64375;51.540;7.364;2023-02-26T11:54:59;4.30;81.00
4908;DHT22;64375;51.540;7.364;2023-02-26T11:57:29;4.50;80.90
4908;DHT22;64375;51.540;7.364;2023-02-26T11:59:59;4.50;75.50
4908;DHT22;64375;51.540;7.364;2023-02-26T12:02:31;4.30;76.20
4908;DHT22;64375;51.540;7.364;2023-02-26T12:05:05;4.30;76.40
4908;DHT22;64375;51.540;7.364;2023-02-26T12:07:33;4.30;76.10
4908;DHT22;64375;51.540;7.364;2023-02-26T12:10:01;4.10;76.50
4908;DHT22;64375;51.540;7.364;2023-02-26T12:13:06;4.00;77.30
4908;DHT22;64375;51.540;7.364;2023-02-26T12:15:48;4.20;78.70
4908;DHT22;64375;51.540;7.364;2023-02-26T12:18:29;4.20;74.50
4908;DHT22;64375;51.540;7.364;2023-02-26T12:21:18;4.20;76.50
4908;DHT22;64375;51.540;7.364;2023-02-26T12:24:13;4.30;75.60
4908;DHT22;64375;51.540;7.364;2023-02-26T12:26:47;4.10;72.90
4908;DHT22;64375;51.540;7.364;2023-02-26T12:29:40;4.20;73.20
4908;DHT22;64375;51.540;7.364;2023-02-26T12:32:35;4.20;75.20
4908;DHT22;64375;51.540;7.364;2023-02-26T12:35:41;4.30;75.90
4908;DHT22;64375;51.540;7.364;2023-02-26T12:38:29;4.30;75.30
4908;DHT22;64375;51.540;7.364;2023-02-26T12:41:41;4.30;74.30
4908;DHT22;64375;51.540;7.364;2023-02-26T12:44:36;4.30;75.60
4908;DHT22;64375;51.540;7.364;2023-02-26T12:47:29;4.40;77.10
4908;DHT22;64375;51.540;7.364;2023-02-26T12:50:24;4.50;74.60
4908;DHT22;64375;51.540;7.364;2023-02-26T12:56:15;4.40;72.90
4908;DHT22;64375;51.540;7.364;2023-02-26T12:58:59;4.40;72.90
4908;DHT22;64375;51.540;7.364;2023-02-26T13:01:58;4.50;73.10
4908;DHT22;64375;51.540;7.364;2023-02-26T13:07:50;4.50;73.40
4908;DHT22;64375;51.540;7.364;2023-02-26T13:10:33;4.60;73.50
4908;DHT22;64375;51.540;7.364;2023-02-26T13:13:26;4.70;73.60
4908;DHT22;64375;51.540;7.364;2023-02-26T13:16:10;4.90;74.50
4908;DHT22;64375;51.540;7.364;2023-02-26T13:18:55;4.80;73.50
4908;DHT22;64375;51.540;7.364;2023-02-26T13:21:36;4.90;73.00
4908;DHT22;64375;51.540;7.364;2023-02-26T13:24:10;4.90;71.20
4908;DHT22;64375;51.540;7.364;2023-02-26T13:26:39;4.90;71.90
4908;DHT22;64375;51.540;7.364;2023-02-26T13:29:13;5.00;72.90
4908;DHT22;64375;51.540;7.364;2023-02-26T13:31:44;4.90;72.20
4908;DHT22;64375;51.540;7.364;2023-02-26T13:34:18;5.10;71.60
4908;DHT22;64375;51.540;7.364;2023-02-26T13:36:57;5.00;69.70
4908;DHT22;64375;51.540;7.364;2023-02-26T13:39:39;4.80;71.70
4908;DHT22;64375;51.540;7.364;2023-02-26T13:42:20;4.70;70.00
4908;DHT22;64375;51.540;7.364;2023-02-26T13:45:06;4.70;71.60
4908;DHT22;64375;51.540;7.364;2023-02-26T13:47:56;4.80;69.40
4908;DHT22;64375;51.540;7.364;2023-02-26T13:50:44;4.80;68.80
4908;DHT22;64375;51.540;7.364;2023-02-26T13:53:50;4.90;72.10
4908;DHT22;64375;51.540;7.364;2023-02-26T13:56:22;4.90;70.20
4908;DHT22;64375;51.540;7.364;2023-02-26T13:58:59;5.00;71.00
4908;DHT22;64375;51.540;7.364;2023-02-26T14:01:33;5.10;70.00
4908;DHT22;64375;51.540;7.364;2023-02-26T14:04:21;5.20;70.10
4908;DHT22;64375;51.540;7.364;2023-02-26T14:07:04;5.10;68.30
4908;DHT22;64375;51.540;7.364;2023-02-26T14:09:44;5.20;73.40
4908;DHT22;64375;51.540;7.364;2023-02-26T14:12:36;5.40;69.30
4908;DHT22;64375;51.540;7.364;2023-02-26T14:15:41;5.20;68.80
4908;DHT22;64375;51.540;7.364;2023-02-26T14:18:27;5.20;69.10
4908;DHT22;64375;51.540;7.364;2023-02-26T14:21:27;5.40;71.50
4908;DHT22;64375;51.540;7.364;2023-02-26T14:24:06;5.50;69.00
4908;DHT22;64375;51.540;7.364;2023-02-26T14:26:44;5.50;69.20
4908;DHT22;64375;51.540;7.364;2023-02-26T14:29:24;5.50;68.70
4908;DHT22;64375;51.540;7.364;2023-02-26T14:32:10;5.50;70.10
4908;DHT22;64375;51.540;7.364;2023-02-26T14:34:52;5.40;68.70
4908;DHT22;64375;51.540;7.364;2023-02-26T14:37:23;5.10;67.70
4908;DHT22;64375;51.540;7.364;2023-02-26T14:39:55;5.10;70.10
4908;DHT22;64375;51.540;7.364;2023-02-26T14:42:32;5.00;69.20
4908;DHT22;64375;51.540;7.364;2023-02-26T14:45:23;5.00;70.60
4908;DHT22;64375;51.540;7.364;2023-02-26T14:48:03;5.00;75.00
4908;DHT22;64375;51.540;7.364;2023-02-26T14:50:41;5.20;70.80
4908;DHT22;64375;51.540;7.364;2023-02-26T14:53:50;5.30;67.60
4908;DHT22;64375;51.540;7.364;2023-02-26T14:56:29;5.20;66.80
4908;DHT22;64375;51.540;7.364;2023-02-26T15:02:20;5.10;68.60
4908;DHT22;64375;51.540;7.364;2023-02-26T15:05:15;5.00;69.10
4908;DHT22;64375;51.540;7.364;2023-02-26T15:08:11;4.90;67.30
4908;DHT22;64375;51.540;7.364;2023-02-26T15:11:02;4.90;67.00
4908;DHT22;64375;51.540;7.364;2023-02-26T15:13:49;4.70;67.60
4908;DHT22;64375;51.540;7.364;2023-02-26T15:16:30;4.80;68.30
4908;DHT22;64375;51.540;7.364;2023-02-26T15:19:22;4.90;68.80
4908;DHT22;64375;51.540;7.364;2023-02-26T15:22:17;4.90;69.10
4908;DHT22;64375;51.540;7.364;2023-02-26T15:25:04;5.00;69.30
4908;DHT22;64375;51.540;7.364;2023-02-26T15:27:37;5.00;69.30
4908;DHT22;64375;51.540;7.364;2023-02-26T15:30:08;5.00;68.60
4908;DHT22;64375;51.540;7.364;2023-02-26T15:32:39;5.00;69.10
4908;DHT22;64375;51.540;7.364;2023-02-26T15:35:14;5.00;68.50
4908;DHT22;64375;51.540;7.364;2023-02-26T15:37:46;5.00;68.50
4908;DHT22;64375;51.540;7.364;2023-02-26T15:40:16;4.90;68.60
4908;DHT22;64375;51.540;7.364;2023-02-26T15:42:55;4.90;68.80
4908;DHT22;64375;51.540;7.364;2023-02-26T15:45:31;5.10;69.70
4908;DHT22;64375;51.540;7.364;2023-02-26T15:48:04;5.10;69.00
4908;DHT22;64375;51.540;7.364;2023-02-26T15:50:39;5.00;69.00
4908;DHT22;64375;51.540;7.364;2023-02-26T15:53:10;5.10;69.10
4908;DHT22;64375;51.540;7.364;2023-02-26T15:55:46;5.10;69.20
4908;DHT22;64375;51.540;7.364;2023-02-26T15:58:20;5.20;70.90
4908;DHT22;64375;51.540;7.364;2023-02-26T16:00:53;5.30;71.70
4908;DHT22;64375;51.540;7.364;2023-02-26T16:03:26;5.10;69.60
4908;DHT22;64375;51.540;7.364;2023-02-26T16:05:54;4.90;69.50
4908;DHT22;64375;51.540;7.364;2023-02-26T16:08:22;4.90;68.90
4908;DHT22;64375;51.540;7.364;2023-02-26T16:10:53;5.00;69.20
4908;DHT22;64375;51.540;7.364;2023-02-26T16:13:26;5.10;68.30
4908;DHT22;64375;51.540;7.364;2023-02-26T16:16:00;5.10;67.80
4908;DHT22;64375;51.540;7.364;2023-02-26T16:18:31;5.00;68.60
4908;DHT22;64375;51.540;7.364;2023-02-26T16:21:05;5.00;68.60
4908;DHT22;64375;51.540;7.364;2023-02-26T16:23:42;5.10;68.10
4908;DHT22;64375;51.540;7.364;2023-02-26T16:26:20;5.10;68.10
4908;DHT22;64375;51.540;7.364;2023-02-26T16:28:54;5.40;68.80
4908;DHT22;64375;51.540;7.364;2023-02-26T16:31:24;6.00;73.30
4908;DHT22;64375;51.540;7.364;2023-02-26T16:33:56;5.40;66.30
4908;DHT22;64375;51.540;7.364;2023-02-26T16:36:29;4.90;67.30
4908;DHT22;64375;51.540;7.364;2023-02-26T16:39:10;5.00;68.30
4908;DHT22;64375;51.540;7.364;2023-02-26T16:41:46;5.10;68.70
4908;DHT22;64375;51.540;7.364;2023-02-26T16:44:46;5.20;67.70
4908;DHT22;64375;51.540;7.364;2023-02-26T16:47:14;5.10;67.50
4908;DHT22;64375;51.540;7.364;2023-02-26T16:49:43;5.20;67.70
4908;DHT22;64375;51.540;7.364;2023-02-26T16:52:20;5.30;69.30
4908;DHT22;64375;51.540;7.364;2023-02-26T16:54:59;5.30;67.50
4908;DHT22;64375;51.540;7.364;2023-02-26T16:57:34;5.30;69.10
4908;DHT22;64375;51.540;7.364;2023-02-26T17:00:06;5.40;68.40
4908;DHT22;64375;51.540;7.364;2023-02-26T17:02:44;5.40;69.00
4908;DHT22;64375;51.540;7.364;2023-02-26T17:05:20;5.40;68.70
4908;DHT22;64375;51.540;7.364;2023-02-26T17:07:53;5.20;69.10